createdAt,value
2017-11-12T00:00:34.440Z,52.44
2017-11-12T00:03:03.360Z,52.43
2017-11-12T00:05:32.237Z,52.39
2017-11-12T00:08:00.658Z,52.36
2017-11-12T00:10:29.006Z,52.44
2017-11-12T00:12:57.481Z,52.41
2017-11-12T00:15:25.995Z,52.43
2017-11-12T00:17:58.392Z,52.43
2017-11-12T00:20:26.804Z,52.42
2017-11-12T00:22:55.087Z,52.36
2017-11-12T00:25:23.424Z,52.43
2017-11-12T00:27:51.789Z,52.39
2017-11-12T00:30:20.205Z,52.38
2017-11-12T00:32:48.581Z,52.49
2017-11-12T00:35:16.895Z,52.40
2017-11-12T00:37:45.304Z,52.35
2017-11-12T00:40:14.325Z,52.35
2017-11-12T00:42:42.623Z,52.35
2017-11-12T00:45:11.120Z,52.39
2017-11-12T00:47:39.387Z,52.35
2017-11-12T00:50:07.678Z,52.42
2017-11-12T00:52:36.013Z,52.30
2017-11-12T00:55:04.514Z,52.39
2017-11-12T00:57:32.816Z,52.36
2017-11-12T01:00:01.070Z,52.32
2017-11-12T01:02:29.469Z,52.31
2017-11-12T01:04:57.751Z,52.33
2017-11-12T01:07:26.077Z,52.34
2017-11-12T01:09:54.402Z,52.33
2017-11-12T01:12:22.717Z,52.34
2017-11-12T01:14:51.049Z,52.25
2017-11-12T01:17:19.362Z,52.33
2017-11-12T01:19:47.649Z,52.31
2017-11-12T01:22:15.943Z,52.27
2017-11-12T01:24:44.285Z,52.33
2017-11-12T01:27:12.588Z,52.31
2017-11-12T01:29:41.181Z,52.34
2017-11-12T01:32:09.649Z,52.30
2017-11-12T01:34:38.088Z,52.31
2017-11-12T01:37:06.409Z,52.31
2017-11-12T01:39:34.873Z,52.27
2017-11-12T01:42:03.170Z,52.30
2017-11-12T01:44:31.613Z,52.30
2017-11-12T01:46:59.906Z,52.32
2017-11-12T01:49:28.190Z,52.27
2017-11-12T01:51:56.509Z,52.27
2017-11-12T01:54:24.927Z,52.30
2017-11-12T01:56:53.285Z,52.28
2017-11-12T01:59:21.705Z,52.26
2017-11-12T02:01:50.008Z,52.25
2017-11-12T02:04:18.464Z,52.29
2017-11-12T02:06:46.765Z,52.25
2017-11-12T02:09:15.234Z,52.23
2017-11-12T02:11:44.288Z,52.27
2017-11-12T02:14:12.560Z,52.27
2017-11-12T02:16:40.868Z,52.22
2017-11-12T02:19:09.197Z,52.22
2017-11-12T02:21:37.509Z,52.26
2017-11-12T02:24:05.858Z,52.14
2017-11-12T02:26:34.172Z,52.18
2017-11-12T02:29:02.478Z,52.25
2017-11-12T02:31:30.810Z,52.25
2017-11-12T02:33:59.181Z,52.17
2017-11-12T02:36:27.504Z,52.16
2017-11-12T02:38:55.788Z,52.16
2017-11-12T02:41:24.096Z,52.17
2017-11-12T02:43:52.402Z,52.18
2017-11-12T02:46:20.781Z,52.13
2017-11-12T02:48:49.080Z,52.16
2017-11-12T02:51:17.609Z,52.18
2017-11-12T02:53:45.973Z,52.14
2017-11-12T02:56:14.306Z,52.15
2017-11-12T02:58:42.593Z,52.18
2017-11-12T03:01:11.066Z,52.21
2017-11-12T03:03:39.400Z,52.21
2017-11-12T03:06:07.726Z,52.21
2017-11-12T03:08:36.088Z,52.21
2017-11-12T03:11:04.384Z,52.17
2017-11-12T03:13:32.833Z,52.20
2017-11-12T03:16:01.136Z,52.18
2017-11-12T03:18:29.593Z,52.19
2017-11-12T03:20:57.923Z,52.15
2017-11-12T03:23:26.326Z,52.21
2017-11-12T03:25:54.649Z,52.22
2017-11-12T03:28:22.932Z,52.19
2017-11-12T03:30:51.238Z,52.16
2017-11-12T03:33:19.553Z,52.13
2017-11-12T03:35:47.845Z,52.26
2017-11-12T03:38:16.171Z,52.24
2017-11-12T03:40:44.492Z,52.23
2017-11-12T03:43:12.760Z,52.22
2017-11-12T03:45:41.060Z,52.21
2017-11-12T03:48:09.508Z,52.21
2017-11-12T03:50:37.817Z,52.16
2017-11-12T03:53:06.102Z,52.23
2017-11-12T03:55:34.464Z,52.27
2017-11-12T03:58:02.750Z,52.26
2017-11-12T04:00:31.384Z,52.17
2017-11-12T04:02:59.767Z,52.28
2017-11-12T04:05:28.113Z,52.23
2017-11-12T04:07:56.537Z,52.27
2017-11-12T04:10:24.864Z,52.21
2017-11-12T04:12:54.942Z,52.26
2017-11-12T04:15:27.164Z,52.21
2017-11-12T04:17:56.005Z,52.19
2017-11-12T04:20:24.296Z,52.19
2017-11-12T04:22:52.577Z,52.19
2017-11-12T04:25:20.886Z,52.21
2017-11-12T04:27:49.313Z,52.20
2017-11-12T04:30:17.645Z,52.27
2017-11-12T04:32:46.029Z,52.25
2017-11-12T04:35:14.360Z,52.21
2017-11-12T04:37:42.632Z,52.28
2017-11-12T04:40:10.966Z,52.23
2017-11-12T04:42:39.235Z,52.24
2017-11-12T04:45:07.693Z,52.24
2017-11-12T04:47:36.129Z,52.23
2017-11-12T04:50:04.433Z,52.25
2017-11-12T04:52:32.734Z,52.25
2017-11-12T04:55:01.176Z,52.24
2017-11-12T04:57:29.512Z,52.25
2017-11-12T04:59:57.801Z,52.21
2017-11-12T05:02:26.153Z,52.23
2017-11-12T05:04:54.564Z,52.23
2017-11-12T05:07:22.972Z,52.18
2017-11-12T05:09:51.256Z,52.23
2017-11-12T05:12:19.568Z,52.18
2017-11-12T05:14:48.013Z,52.22
2017-11-12T05:17:16.331Z,52.23
2017-11-12T05:19:44.612Z,52.19
2017-11-12T05:22:13.004Z,52.22
2017-11-12T05:24:41.322Z,52.24
2017-11-12T05:27:09.613Z,52.24
2017-11-12T05:29:37.906Z,52.18
2017-11-12T05:32:06.292Z,52.19
2017-11-12T05:34:41.451Z,52.16
2017-11-12T05:37:09.776Z,52.15
2017-11-12T05:39:38.033Z,52.18
2017-11-12T05:42:06.352Z,52.19
2017-11-12T05:44:35.692Z,52.18
2017-11-12T05:47:04.236Z,52.22
2017-11-12T05:49:32.598Z,52.22
2017-11-12T05:52:00.963Z,52.22
2017-11-12T05:54:29.255Z,52.20
2017-11-12T05:56:57.582Z,52.12
2017-11-12T05:59:25.845Z,52.16
2017-11-12T06:01:54.226Z,52.16
2017-11-12T06:04:22.542Z,52.19
2017-11-12T06:06:51.018Z,52.13
2017-11-12T06:09:19.293Z,52.23
2017-11-12T06:11:47.596Z,52.19
2017-11-12T06:14:15.859Z,52.16
2017-11-12T06:16:44.341Z,52.16
2017-11-12T06:19:12.669Z,52.16
2017-11-12T06:21:41.005Z,52.19
2017-11-12T06:24:09.344Z,52.13
2017-11-12T06:26:37.688Z,52.13
2017-11-12T06:29:06.114Z,52.10
2017-11-12T06:31:34.451Z,52.11
2017-11-12T06:34:02.754Z,52.12
2017-11-12T06:36:31.086Z,52.09
2017-11-12T06:38:59.324Z,52.12
2017-11-12T06:41:27.832Z,52.10
2017-11-12T06:43:56.085Z,52.12
2017-11-12T06:46:24.414Z,52.17
2017-11-12T06:48:52.733Z,52.13
2017-11-12T06:51:21.143Z,52.06
2017-11-12T06:53:49.453Z,52.02
2017-11-12T06:56:17.777Z,52.00
2017-11-12T06:58:47.059Z,51.97
2017-11-12T07:01:15.445Z,51.86
2017-11-12T07:03:43.799Z,51.91
2017-11-12T07:06:12.321Z,51.90
2017-11-12T07:08:40.749Z,51.85
2017-11-12T07:11:09.072Z,51.80
2017-11-12T07:13:37.341Z,51.89
2017-11-12T07:16:05.669Z,51.87
2017-11-12T07:18:34.089Z,51.87
2017-11-12T07:21:02.421Z,51.96
2017-11-12T07:23:30.707Z,51.96
2017-11-12T07:25:59.004Z,52.01
2017-11-12T07:28:27.377Z,51.96
2017-11-12T07:30:55.691Z,51.95
2017-11-12T07:33:24.144Z,52.01
2017-11-12T07:35:52.478Z,51.98
2017-11-12T07:38:20.757Z,51.97
2017-11-12T07:40:49.111Z,51.94
2017-11-12T07:43:17.438Z,51.93
2017-11-12T07:45:45.856Z,51.93
2017-11-12T07:48:14.137Z,51.88
2017-11-12T07:50:42.608Z,51.87
2017-11-12T07:53:10.950Z,51.94
2017-11-12T07:55:39.377Z,51.97
2017-11-12T07:58:07.641Z,51.90
2017-11-12T08:00:38.198Z,51.91
2017-11-12T08:03:08.084Z,51.92
2017-11-12T08:05:36.696Z,51.95
2017-11-12T08:08:05.065Z,51.85
2017-11-12T08:10:33.445Z,51.84
2017-11-12T08:13:01.727Z,51.81
2017-11-12T08:15:30.077Z,51.80
2017-11-12T08:17:58.353Z,51.70
2017-11-12T08:20:26.713Z,51.65
2017-11-12T08:22:55.077Z,51.66
2017-11-12T08:25:23.734Z,51.63
2017-11-12T08:27:53.161Z,51.55
2017-11-12T08:30:21.575Z,51.64
2017-11-12T08:32:50.057Z,51.57
2017-11-12T08:35:18.565Z,51.65
2017-11-12T08:37:47.902Z,52.00
2017-11-12T08:40:16.250Z,52.18
2017-11-12T08:42:44.547Z,52.19
2017-11-12T08:45:14.596Z,52.23
2017-11-12T08:47:42.957Z,52.15
2017-11-12T08:50:11.263Z,52.10
2017-11-12T08:52:39.731Z,52.07
2017-11-12T08:55:08.050Z,51.97
2017-11-12T08:57:36.323Z,51.83
2017-11-12T09:00:05.188Z,51.74
2017-11-12T09:02:33.668Z,51.92
2017-11-12T09:05:02.393Z,51.75
2017-11-12T09:07:30.817Z,51.82
2017-11-12T09:10:01.676Z,51.87
2017-11-12T09:12:35.721Z,51.73
2017-11-12T09:15:04.283Z,51.73
2017-11-12T09:17:34.085Z,51.54
2017-11-12T09:20:02.563Z,51.55
2017-11-12T09:22:31.095Z,51.37
2017-11-12T09:24:59.612Z,51.50
2017-11-12T09:27:27.954Z,51.67
2017-11-12T09:29:56.255Z,51.64
2017-11-12T09:32:24.661Z,51.62
2017-11-12T09:34:53.920Z,51.70
2017-11-12T09:37:22.242Z,51.68
2017-11-12T09:39:50.586Z,51.67
2017-11-12T09:42:20.010Z,51.43
2017-11-12T09:44:48.710Z,51.09
2017-11-12T09:47:17.068Z,50.84
2017-11-12T09:49:45.376Z,50.59
2017-11-12T09:52:13.717Z,50.82
2017-11-12T09:54:42.031Z,50.94
2017-11-12T09:57:10.610Z,50.91
2017-11-12T09:59:39.337Z,50.87
2017-11-12T10:02:08.737Z,50.84
2017-11-12T10:04:37.123Z,50.81
2017-11-12T10:07:05.444Z,50.83
2017-11-12T10:09:34.439Z,50.86
2017-11-12T10:12:03.030Z,50.71
2017-11-12T10:14:31.501Z,50.73
2017-11-12T10:16:59.869Z,50.77
2017-11-12T10:19:28.888Z,50.83
2017-11-12T10:21:57.772Z,50.74
2017-11-12T10:24:26.221Z,50.68
2017-11-12T10:26:55.661Z,50.65
2017-11-12T10:29:24.253Z,50.58
2017-11-12T10:31:52.717Z,50.60
2017-11-12T10:34:21.069Z,50.70
2017-11-12T10:36:49.585Z,50.71
2017-11-12T10:39:17.916Z,50.79
2017-11-12T10:41:46.383Z,50.65
2017-11-12T10:44:14.724Z,50.55
2017-11-12T10:46:43.645Z,50.73
2017-11-12T10:49:12.094Z,50.65
2017-11-12T10:51:40.493Z,50.58
2017-11-12T10:54:09.472Z,50.80
2017-11-12T10:56:39.611Z,50.72
2017-11-12T10:59:09.482Z,50.79
2017-11-12T11:01:39.121Z,50.77
2017-11-12T11:04:08.288Z,50.70
2017-11-12T11:06:36.769Z,50.73
2017-11-12T11:09:05.613Z,50.69
2017-11-12T11:11:33.929Z,50.81
2017-11-12T11:14:02.242Z,50.62
2017-11-12T11:16:30.619Z,50.74
2017-11-12T11:18:59.506Z,50.74
2017-11-12T11:21:28.169Z,50.78
2017-11-12T11:23:56.493Z,50.78
2017-11-12T11:26:24.830Z,50.81
2017-11-12T11:28:53.261Z,50.86
2017-11-12T11:31:21.573Z,50.84
2017-11-12T11:33:49.901Z,50.90
2017-11-12T11:36:18.241Z,50.84
2017-11-12T11:38:52.149Z,50.95
2017-11-12T11:41:20.608Z,50.76
2017-11-12T11:43:48.867Z,50.78
2017-11-12T11:46:18.145Z,50.81
2017-11-12T11:48:46.439Z,50.85
2017-11-12T11:51:14.834Z,50.74
2017-11-12T11:53:43.200Z,50.78
2017-11-12T11:56:11.545Z,50.74
2017-11-12T11:58:39.952Z,50.86
2017-11-12T12:01:08.242Z,50.88
2017-11-12T12:03:36.566Z,51.00
2017-11-12T12:06:04.889Z,50.86
2017-11-12T12:08:33.218Z,51.02
2017-11-12T12:11:01.501Z,50.91
2017-11-12T12:13:29.808Z,50.94
2017-11-12T12:15:58.122Z,51.05
2017-11-12T12:18:26.444Z,51.00
2017-11-12T12:20:54.979Z,51.00
2017-11-12T12:23:26.539Z,50.98
2017-11-12T12:25:56.652Z,50.94
2017-11-12T12:28:26.112Z,50.92
2017-11-12T12:30:56.513Z,50.96
2017-11-12T12:33:29.897Z,50.88
2017-11-12T12:35:59.916Z,50.82
2017-11-12T12:38:29.345Z,50.94
2017-11-12T12:40:57.872Z,50.86
2017-11-12T12:43:26.156Z,50.80
2017-11-12T12:45:54.512Z,50.82
2017-11-12T12:48:22.795Z,50.94
2017-11-12T12:50:51.170Z,50.86
2017-11-12T12:53:20.214Z,50.94
2017-11-12T12:55:48.579Z,50.98
2017-11-12T12:58:17.028Z,50.95
2017-11-12T13:00:45.441Z,51.05
2017-11-12T13:03:13.741Z,51.03
2017-11-12T13:05:42.069Z,51.08
2017-11-12T13:08:10.532Z,51.03
2017-11-12T13:10:38.881Z,51.10
2017-11-12T13:13:07.288Z,51.08
2017-11-12T13:15:42.192Z,51.12
2017-11-12T13:18:12.380Z,51.09
2017-11-12T13:20:40.718Z,51.02
2017-11-12T13:23:09.012Z,51.00
2017-11-12T13:25:37.325Z,51.04
2017-11-12T13:28:05.919Z,50.98
2017-11-12T13:30:40.125Z,50.89
2017-11-12T13:33:09.399Z,50.96
2017-11-12T13:35:37.716Z,50.98
2017-11-12T13:38:06.057Z,51.01
2017-11-12T13:40:34.580Z,50.97
2017-11-12T13:43:03.012Z,50.98
2017-11-12T13:45:31.488Z,51.01
2017-11-12T13:47:59.940Z,51.09
2017-11-12T13:50:28.236Z,50.97
2017-11-12T13:52:57.100Z,51.01
2017-11-12T13:55:25.424Z,50.97
2017-11-12T13:57:53.896Z,51.03
2017-11-12T14:00:22.408Z,51.06
2017-11-12T14:02:50.833Z,50.99
2017-11-12T14:05:21.241Z,50.98
2017-11-12T14:07:49.569Z,50.97
2017-11-12T14:10:17.910Z,50.97
2017-11-12T14:12:46.197Z,51.04
2017-11-12T14:15:14.492Z,50.99
2017-11-12T14:17:42.952Z,51.15
2017-11-12T14:20:11.568Z,51.14
2017-11-12T14:22:40.232Z,51.05
2017-11-12T14:25:08.558Z,51.07
2017-11-12T14:27:37.080Z,51.09
2017-11-12T14:30:05.201Z,51.13
2017-11-12T14:32:33.512Z,51.06
2017-11-12T14:35:01.906Z,51.06
2017-11-12T14:37:30.425Z,51.15
2017-11-12T14:40:01.230Z,51.02
2017-11-12T14:42:30.509Z,51.05
2017-11-12T14:44:58.975Z,51.04
2017-11-12T14:47:27.386Z,51.03
2017-11-12T14:49:55.672Z,51.11
2017-11-12T14:52:23.987Z,50.96
2017-11-12T14:54:52.396Z,51.03
2017-11-12T14:57:20.725Z,50.90
2017-11-12T14:59:49.044Z,51.04
2017-11-12T15:02:17.473Z,51.05
2017-11-12T15:04:47.673Z,51.01
2017-11-12T15:07:15.969Z,50.99
2017-11-12T15:09:46.130Z,50.94
2017-11-12T15:12:15.217Z,50.91
2017-11-12T15:14:43.709Z,50.80
2017-11-12T15:17:12.012Z,50.93
2017-11-12T15:19:40.304Z,50.92
2017-11-12T15:22:11.482Z,50.87
2017-11-12T15:24:40.605Z,50.88
2017-11-12T15:27:11.616Z,50.92
2017-11-12T15:29:40.889Z,50.91
2017-11-12T15:32:09.500Z,50.94
2017-11-12T15:34:38.528Z,50.79
2017-11-12T15:37:06.928Z,50.81
2017-11-12T15:39:36.341Z,50.81
2017-11-12T15:42:05.273Z,50.82
2017-11-12T15:44:33.709Z,50.81
2017-11-12T15:47:03.509Z,50.65
2017-11-12T15:49:32.077Z,50.75
2017-11-12T15:52:01.276Z,50.78
2017-11-12T15:54:29.776Z,50.74
2017-11-12T15:56:58.109Z,50.88
2017-11-12T15:59:26.436Z,50.78
2017-11-12T16:01:54.729Z,50.80
2017-11-12T16:04:23.066Z,50.87
2017-11-12T16:06:51.480Z,50.61
2017-11-12T16:09:19.790Z,50.77
2017-11-12T16:11:48.157Z,50.74
2017-11-12T16:14:16.430Z,50.79
2017-11-12T16:16:44.759Z,50.71
2017-11-12T16:19:13.060Z,50.76
2017-11-12T16:21:41.341Z,50.67
2017-11-12T16:24:09.644Z,50.72
2017-11-12T16:26:37.946Z,50.60
2017-11-12T16:29:06.913Z,50.57
2017-11-12T16:31:35.193Z,50.73
2017-11-12T16:34:03.441Z,50.66
2017-11-12T16:36:31.816Z,50.74
2017-11-12T16:39:00.271Z,50.58
2017-11-12T16:41:28.704Z,50.66
2017-11-12T16:43:56.964Z,50.70
2017-11-12T16:46:25.276Z,50.68
2017-11-12T16:48:56.521Z,50.67
2017-11-12T16:51:24.870Z,50.62
2017-11-12T16:53:53.281Z,50.44
2017-11-12T16:56:21.728Z,50.60
2017-11-12T16:58:51.072Z,50.51
2017-11-12T17:01:19.425Z,50.68
2017-11-12T17:03:47.749Z,50.70
2017-11-12T17:06:16.305Z,50.77
2017-11-12T17:08:44.577Z,50.82
2017-11-12T17:11:13.016Z,50.79
2017-11-12T17:13:41.387Z,50.68
2017-11-12T17:16:09.764Z,50.63
2017-11-12T17:18:38.053Z,50.71
2017-11-12T17:21:06.361Z,50.71
2017-11-12T17:23:34.773Z,50.75
2017-11-12T17:26:03.072Z,50.68
2017-11-12T17:28:31.316Z,50.57
2017-11-12T17:30:59.732Z,50.52
2017-11-12T17:33:28.189Z,50.61
2017-11-12T17:35:56.497Z,50.44
2017-11-12T17:38:24.852Z,50.57
2017-11-12T17:40:53.264Z,50.42
2017-11-12T17:43:21.526Z,50.45
2017-11-12T17:45:50.005Z,50.41
2017-11-12T17:48:18.557Z,50.24
2017-11-12T17:50:46.874Z,50.30
2017-11-12T17:53:15.412Z,50.21
2017-11-12T17:55:43.730Z,50.21
2017-11-12T17:58:12.210Z,50.13
2017-11-12T18:00:41.126Z,50.20
2017-11-12T18:03:09.746Z,50.18
2017-11-12T18:05:38.885Z,50.32
2017-11-12T18:08:07.617Z,50.38
2017-11-12T18:10:36.233Z,50.30
2017-11-12T18:13:04.688Z,50.22
2017-11-12T18:15:33.021Z,50.25
2017-11-12T18:18:01.859Z,50.11
2017-11-12T18:21:29.479Z,49.96
2017-11-12T18:23:57.773Z,49.98
2017-11-12T18:26:26.425Z,50.04
2017-11-12T18:28:54.716Z,49.99
2017-11-12T18:31:23.125Z,49.83
2017-11-12T18:33:52.257Z,49.91
2017-11-12T18:36:20.705Z,49.84
2017-11-12T18:38:50.277Z,49.88
2017-11-12T18:41:18.633Z,49.93
2017-11-12T18:43:46.976Z,50.39
2017-11-12T18:46:15.289Z,50.49
2017-11-12T18:48:43.952Z,50.59
2017-11-12T18:51:13.638Z,50.61
2017-11-12T18:53:41.951Z,50.60
2017-11-12T18:56:11.002Z,50.63
2017-11-12T18:58:39.533Z,50.70
2017-11-12T19:01:08.369Z,50.72
2017-11-12T19:03:37.465Z,50.64
2017-11-12T19:06:10.193Z,50.73
2017-11-12T19:08:38.588Z,50.79
2017-11-12T19:11:06.912Z,50.75
2017-11-12T19:13:35.209Z,50.75
2017-11-12T19:16:03.625Z,50.76
2017-11-12T19:18:32.173Z,50.77
2017-11-12T19:21:00.587Z,50.74
2017-11-12T19:23:29.031Z,50.75
2017-11-12T19:25:57.855Z,50.73
2017-11-12T19:28:26.385Z,50.79
2017-11-12T19:30:54.728Z,50.84
2017-11-12T19:33:23.037Z,50.83
2017-11-12T19:35:51.364Z,50.85
2017-11-12T19:38:19.660Z,50.83
2017-11-12T19:40:48.124Z,50.79
2017-11-12T19:43:16.776Z,50.79
2017-11-12T19:45:45.068Z,50.78
2017-11-12T19:48:13.416Z,50.76
2017-11-12T19:50:41.736Z,50.75
2017-11-12T19:53:10.021Z,50.66
2017-11-12T19:55:38.948Z,50.69
2017-11-12T19:58:07.219Z,50.58
2017-11-12T20:00:35.677Z,50.54
2017-11-12T20:03:04.258Z,50.50
2017-11-12T20:05:32.824Z,50.51
2017-11-12T20:08:01.222Z,50.49
2017-11-12T20:10:34.112Z,50.42
2017-11-12T20:13:03.425Z,50.45
2017-11-12T20:15:31.799Z,50.41
2017-11-12T20:18:00.240Z,50.42
2017-11-12T20:20:28.613Z,50.53
2017-11-12T20:22:57.092Z,50.47
2017-11-12T20:25:25.661Z,50.52
2017-11-12T20:27:54.257Z,50.53
2017-11-12T20:30:22.777Z,50.42
2017-11-12T20:32:52.025Z,50.45
2017-11-12T20:35:20.350Z,50.40
2017-11-12T20:37:48.627Z,50.46
2017-11-12T20:40:17.095Z,50.47
2017-11-12T20:42:45.520Z,50.51
2017-11-12T20:45:13.888Z,50.50
2017-11-12T20:47:42.173Z,50.50
2017-11-12T20:50:10.621Z,50.48
2017-11-12T20:52:38.975Z,50.46
2017-11-12T20:55:07.407Z,50.50
2017-11-12T20:57:38.145Z,50.52
2017-11-12T21:00:08.688Z,50.50
2017-11-12T21:02:37.349Z,50.52
2017-11-12T21:05:05.672Z,50.56
2017-11-12T21:07:37.613Z,50.65
2017-11-12T21:10:07.753Z,50.57
2017-11-12T21:12:36.098Z,50.57
2017-11-12T21:15:04.624Z,50.66
2017-11-12T21:17:33.097Z,50.63
2017-11-12T21:20:01.554Z,50.60
2017-11-12T21:22:30.074Z,50.69
2017-11-12T21:24:58.424Z,50.71
2017-11-12T21:27:27.090Z,50.74
2017-11-12T21:29:55.721Z,50.72
2017-11-12T21:32:24.213Z,50.75
2017-11-12T21:34:52.705Z,50.72
2017-11-12T21:37:21.380Z,50.74
2017-11-12T21:39:49.792Z,50.70
2017-11-12T21:42:18.268Z,50.72
2017-11-12T21:44:46.562Z,50.71
2017-11-12T21:47:14.877Z,50.68
2017-11-12T21:49:43.149Z,50.79
2017-11-12T21:52:12.237Z,50.70
2017-11-12T21:54:40.712Z,50.76
2017-11-12T21:57:11.837Z,50.76
2017-11-12T21:59:44.656Z,50.80
2017-11-12T22:02:13.546Z,50.81
2017-11-12T22:04:41.869Z,50.81
2017-11-12T22:07:10.177Z,50.75
2017-11-12T22:09:38.510Z,50.84
2017-11-12T22:12:06.929Z,50.86
2017-11-12T22:14:35.534Z,50.86
2017-11-12T22:17:03.982Z,50.88
2017-11-12T22:19:32.289Z,50.79
2017-11-12T22:22:00.577Z,50.87
2017-11-12T22:24:28.881Z,50.86
2017-11-12T22:26:57.190Z,50.87
2017-11-12T22:29:25.496Z,50.83
2017-11-12T22:31:53.840Z,50.87
2017-11-12T22:34:22.332Z,50.90
2017-11-12T22:36:50.643Z,50.89
2017-11-12T22:39:19.085Z,50.79
2017-11-12T22:41:47.389Z,50.88
2017-11-12T22:44:15.711Z,50.91
2017-11-12T22:46:44.004Z,50.92
2017-11-12T22:49:12.381Z,50.92
2017-11-12T22:51:40.704Z,50.98
2017-11-12T22:54:09.001Z,50.90
2017-11-12T22:56:37.312Z,50.82
2017-11-12T22:59:07.977Z,50.93
2017-11-12T23:01:36.685Z,50.87
2017-11-12T23:04:05.036Z,50.83
2017-11-12T23:06:33.425Z,50.90
2017-11-12T23:09:01.709Z,50.87
2017-11-12T23:11:30.176Z,50.91
2017-11-12T23:13:58.448Z,50.92
2017-11-12T23:16:26.741Z,50.96
2017-11-12T23:18:55.180Z,50.87
2017-11-12T23:21:23.465Z,50.87
2017-11-12T23:23:51.789Z,50.91
2017-11-12T23:26:20.089Z,50.95
2017-11-12T23:28:48.484Z,50.88
2017-11-12T23:31:16.796Z,50.92
2017-11-12T23:33:45.253Z,50.94
2017-11-12T23:36:13.565Z,50.83
2017-11-12T23:38:41.843Z,50.89
2017-11-12T23:41:10.333Z,50.95
2017-11-12T23:43:38.774Z,50.87
2017-11-12T23:46:07.091Z,50.83
2017-11-12T23:48:35.395Z,50.96
2017-11-12T23:51:03.717Z,50.90
2017-11-12T23:53:32.101Z,50.79
2017-11-12T23:56:00.430Z,50.96
2017-11-12T23:58:28.732Z,50.89
